createdAt,value
2017-10-12T00:00:44.166Z,0
2017-10-12T00:01:43.816Z,0
2017-10-12T00:02:43.809Z,0
2017-10-12T00:03:44.133Z,0
2017-10-12T00:04:43.785Z,0
2017-10-12T00:05:44.125Z,0
2017-10-12T00:06:44.115Z,0
2017-10-12T00:07:44.095Z,0
2017-10-12T00:08:44.094Z,0
2017-10-12T00:09:43.735Z,0
2017-10-12T00:10:44.086Z,0
2017-10-12T00:11:44.393Z,0
2017-10-12T00:12:44.402Z,0
2017-10-12T00:13:44.039Z,0
2017-10-12T00:14:44.051Z,0
2017-10-12T00:15:44.719Z,0
2017-10-12T00:16:43.685Z,0
2017-10-12T00:17:43.661Z,0
2017-10-12T00:18:43.659Z,0
2017-10-12T00:19:43.994Z,0
2017-10-12T00:20:44.323Z,0
2017-10-12T00:21:43.638Z,0
2017-10-12T00:22:43.612Z,0
2017-10-12T00:23:43.950Z,0
2017-10-12T00:24:43.928Z,0
2017-10-12T00:25:43.945Z,0
2017-10-12T00:26:43.572Z,0
2017-10-12T00:27:43.903Z,0
2017-10-12T00:28:44.265Z,0
2017-10-12T00:29:44.227Z,0
2017-10-12T00:30:43.868Z,0
2017-10-12T00:31:44.223Z,0
2017-10-12T00:32:43.516Z,0
2017-10-12T00:33:43.501Z,0
2017-10-12T00:34:43.505Z,0
2017-10-12T00:35:43.820Z,0
2017-10-12T00:36:43.477Z,0
2017-10-12T00:37:43.803Z,0
2017-10-12T00:38:44.147Z,0
2017-10-12T00:39:43.786Z,0
2017-10-12T00:40:43.433Z,0
2017-10-12T00:41:43.767Z,0
2017-10-12T00:42:43.755Z,0
2017-10-12T00:43:43.765Z,0
2017-10-12T00:44:44.080Z,0
2017-10-12T00:45:43.383Z,0
2017-10-12T00:46:43.375Z,0
2017-10-12T00:47:43.378Z,0
2017-10-12T00:48:43.696Z,0
2017-10-12T00:49:43.683Z,0
2017-10-12T00:50:43.673Z,0
2017-10-12T00:51:44.017Z,0
2017-10-12T00:52:44.008Z,0
2017-10-12T00:53:43.988Z,0
2017-10-12T00:54:43.300Z,0
2017-10-12T00:55:43.625Z,0
2017-10-12T00:56:43.622Z,0
2017-10-12T00:57:43.275Z,0
2017-10-12T00:58:43.599Z,0
2017-10-12T00:59:43.932Z,0
2017-10-12T01:00:43.584Z,0
2017-10-12T01:01:43.241Z,0
2017-10-12T01:02:43.237Z,0
2017-10-12T01:03:43.889Z,0
2017-10-12T01:04:43.222Z,0
2017-10-12T01:05:43.221Z,0
2017-10-12T01:06:43.525Z,0
2017-10-12T01:07:43.170Z,0
2017-10-12T01:08:43.162Z,0
2017-10-12T01:09:43.832Z,0
2017-10-12T01:10:43.832Z,0
2017-10-12T01:11:43.167Z,0
2017-10-12T01:12:43.801Z,0
2017-10-12T01:13:43.795Z,0
2017-10-12T01:14:43.443Z,0
2017-10-12T01:15:43.805Z,0
2017-10-12T01:16:43.448Z,0
2017-10-12T01:17:43.430Z,0
2017-10-12T01:18:43.065Z,0
2017-10-12T01:19:43.401Z,0
2017-10-12T01:20:43.406Z,0
2017-10-12T01:21:43.383Z,0
2017-10-12T01:22:43.031Z,0
2017-10-12T01:23:43.695Z,0
2017-10-12T01:24:43.018Z,0
2017-10-12T01:25:43.335Z,0
2017-10-12T01:26:42.988Z,0
2017-10-12T01:27:43.324Z,0
2017-10-12T01:28:42.967Z,0
2017-10-12T01:29:43.308Z,0
2017-10-12T01:30:43.288Z,0
2017-10-12T01:31:43.321Z,0
2017-10-12T01:32:43.271Z,0
2017-10-12T01:33:43.259Z,0
2017-10-12T01:34:42.916Z,0
2017-10-12T01:35:43.259Z,0
2017-10-12T01:36:42.914Z,0
2017-10-12T01:37:42.908Z,0
2017-10-12T01:38:43.554Z,0
2017-10-12T01:39:43.202Z,0
2017-10-12T01:40:43.737Z,0
2017-10-12T01:41:43.194Z,0
2017-10-12T01:42:43.183Z,0
2017-10-12T01:43:43.870Z,0
2017-10-12T01:44:42.821Z,0
2017-10-12T01:45:42.808Z,0
2017-10-12T01:46:43.143Z,0
2017-10-12T01:47:43.475Z,0
2017-10-12T01:48:42.780Z,0
2017-10-12T01:49:43.467Z,0
2017-10-12T01:50:43.114Z,0
2017-10-12T01:51:43.091Z,0
2017-10-12T01:52:43.083Z,0
2017-10-12T01:53:43.074Z,0
2017-10-12T01:54:43.080Z,0
2017-10-12T01:55:43.054Z,0
2017-10-12T01:56:43.052Z,0
2017-10-12T01:57:43.393Z,0
2017-10-12T01:58:42.689Z,0
2017-10-12T01:59:43.019Z,0
2017-10-12T02:00:43.044Z,0
2017-10-12T02:01:43.001Z,0
2017-10-12T02:02:42.992Z,0
2017-10-12T02:03:43.341Z,0
2017-10-12T02:04:42.982Z,0
2017-10-12T02:05:42.963Z,0
2017-10-12T02:06:42.626Z,0
2017-10-12T02:07:42.945Z,0
2017-10-12T02:08:42.596Z,0
2017-10-12T02:09:42.600Z,0
2017-10-12T02:10:42.594Z,0
2017-10-12T02:11:42.569Z,0
2017-10-12T02:12:42.586Z,0
2017-10-12T02:13:42.887Z,0
2017-10-12T02:14:42.575Z,0
2017-10-12T02:15:43.220Z,0
2017-10-12T02:16:42.858Z,0
2017-10-12T02:17:42.858Z,0
2017-10-12T02:18:42.843Z,0
2017-10-12T02:19:42.495Z,0
2017-10-12T02:20:42.829Z,0
2017-10-12T02:21:42.812Z,0
2017-10-12T02:22:42.807Z,0
2017-10-12T02:23:43.142Z,0
2017-10-12T02:24:42.818Z,0
2017-10-12T02:25:42.786Z,0
2017-10-12T02:26:43.105Z,0
2017-10-12T02:27:42.764Z,0
2017-10-12T02:28:42.760Z,0
2017-10-12T02:29:42.761Z,0
2017-10-12T02:30:43.086Z,0
2017-10-12T02:31:42.730Z,0
2017-10-12T02:32:42.715Z,0
2017-10-12T02:33:43.076Z,0
2017-10-12T02:34:42.736Z,0
2017-10-12T02:35:42.698Z,0
2017-10-12T02:36:42.680Z,0
2017-10-12T02:37:42.668Z,0
2017-10-12T02:38:42.994Z,0
2017-10-12T02:39:42.328Z,0
2017-10-12T02:40:42.637Z,0
2017-10-12T02:41:42.302Z,0
2017-10-12T02:42:42.618Z,0
2017-10-12T02:43:42.285Z,0
2017-10-12T02:44:42.259Z,0
2017-10-12T02:45:42.940Z,0
2017-10-12T02:46:42.239Z,0
2017-10-12T02:47:42.953Z,0
2017-10-12T02:48:42.571Z,0
2017-10-12T02:49:42.273Z,0
2017-10-12T02:50:42.543Z,0
2017-10-12T02:51:42.196Z,0
2017-10-12T02:52:42.524Z,0
2017-10-12T02:53:42.530Z,0
2017-10-12T02:54:42.506Z,0
2017-10-12T02:55:42.177Z,0
2017-10-12T02:56:42.827Z,0
2017-10-12T02:57:42.160Z,0
2017-10-12T02:58:42.483Z,0
2017-10-12T02:59:42.118Z,0
2017-10-12T03:00:42.113Z,0
2017-10-12T03:01:42.441Z,0
2017-10-12T03:02:42.449Z,0
2017-10-12T03:03:42.430Z,0
2017-10-12T03:04:42.788Z,0
2017-10-12T03:05:42.061Z,0
2017-10-12T03:06:42.411Z,0
2017-10-12T03:07:42.383Z,0
2017-10-12T03:08:42.037Z,0
2017-10-12T03:09:42.365Z,0
2017-10-12T03:10:42.359Z,0
2017-10-12T03:11:42.347Z,0
2017-10-12T03:12:43.037Z,0
2017-10-12T03:13:42.358Z,0
2017-10-12T03:14:42.322Z,0
2017-10-12T03:15:42.323Z,0
2017-10-12T03:16:41.961Z,0
2017-10-12T03:17:42.288Z,0
2017-10-12T03:18:42.285Z,0
2017-10-12T03:19:42.622Z,0
2017-10-12T03:20:41.951Z,0
2017-10-12T03:21:42.270Z,0
2017-10-12T03:22:42.268Z,0
2017-10-12T03:23:42.235Z,0
2017-10-12T03:24:42.280Z,0
2017-10-12T03:25:42.219Z,0
2017-10-12T03:26:42.564Z,0
2017-10-12T03:27:41.882Z,0
2017-10-12T03:28:41.849Z,0
2017-10-12T03:29:42.543Z,0
2017-10-12T03:30:41.857Z,0
2017-10-12T03:31:42.166Z,0
2017-10-12T03:32:42.157Z,0
2017-10-12T03:33:42.482Z,0
2017-10-12T03:34:41.831Z,0
2017-10-12T03:35:41.786Z,0
2017-10-12T03:36:42.456Z,0
2017-10-12T03:37:42.111Z,0
2017-10-12T03:38:41.760Z,0
2017-10-12T03:39:42.118Z,0
2017-10-12T03:40:42.117Z,0
2017-10-12T03:41:42.077Z,0
2017-10-12T03:42:42.427Z,0
2017-10-12T03:43:41.710Z,0
2017-10-12T03:44:41.702Z,0
2017-10-12T03:45:42.041Z,0
2017-10-12T03:46:41.686Z,0
2017-10-12T03:47:42.019Z,0
2017-10-12T03:48:42.009Z,0
2017-10-12T03:49:41.654Z,0
2017-10-12T03:50:42.000Z,0
2017-10-12T03:51:42.686Z,0
2017-10-12T03:52:41.631Z,0
2017-10-12T03:53:42.307Z,0
2017-10-12T03:54:41.643Z,0
2017-10-12T03:55:42.316Z,0
2017-10-12T03:56:41.594Z,0
2017-10-12T03:57:41.931Z,0
2017-10-12T03:58:42.259Z,0
2017-10-12T03:59:41.953Z,0
2017-10-12T04:00:42.241Z,0
2017-10-12T04:01:41.552Z,0
2017-10-12T04:02:41.532Z,0
2017-10-12T04:03:42.232Z,0
2017-10-12T04:04:41.878Z,0
2017-10-12T04:05:41.846Z,0
2017-10-12T04:06:41.835Z,0
2017-10-12T04:07:41.827Z,0
2017-10-12T04:08:41.494Z,0
2017-10-12T04:09:41.809Z,0
2017-10-12T04:10:41.801Z,0
2017-10-12T04:11:41.452Z,0
2017-10-12T04:12:41.783Z,0
2017-10-12T04:13:41.451Z,0
2017-10-12T04:14:41.767Z,0
2017-10-12T04:15:42.443Z,0
2017-10-12T04:16:41.783Z,0
2017-10-12T04:17:41.414Z,0
2017-10-12T04:18:41.725Z,0
2017-10-12T04:19:41.736Z,0
2017-10-12T04:20:41.703Z,0
2017-10-12T04:21:42.049Z,0
2017-10-12T04:22:41.688Z,0
2017-10-12T04:23:42.019Z,0
2017-10-12T04:24:41.350Z,0
2017-10-12T04:25:42.343Z,0
2017-10-12T04:26:41.685Z,0
2017-10-12T04:27:41.977Z,0
2017-10-12T04:28:41.293Z,0
2017-10-12T04:29:41.623Z,0
2017-10-12T04:30:41.966Z,0
2017-10-12T04:31:41.943Z,0
2017-10-12T04:32:41.254Z,0
2017-10-12T04:33:41.246Z,0
2017-10-12T04:34:42.255Z,0
2017-10-12T04:35:41.227Z,0
2017-10-12T04:36:42.244Z,0
2017-10-12T04:37:41.205Z,0
2017-10-12T04:38:41.878Z,0
2017-10-12T04:39:41.189Z,0
2017-10-12T04:40:41.516Z,0
2017-10-12T04:41:41.877Z,0
2017-10-12T04:42:41.502Z,0
2017-10-12T04:43:41.871Z,0
2017-10-12T04:44:41.488Z,0
2017-10-12T04:45:41.473Z,0
2017-10-12T04:46:41.123Z,0
2017-10-12T04:47:41.454Z,0
2017-10-12T04:48:41.122Z,0
2017-10-12T04:49:41.790Z,0
2017-10-12T04:50:41.082Z,0
2017-10-12T04:51:41.438Z,0
2017-10-12T04:52:41.066Z,0
2017-10-12T04:53:41.408Z,0
2017-10-12T04:54:41.731Z,0
2017-10-12T04:55:41.038Z,0
2017-10-12T04:56:41.376Z,0
2017-10-12T04:57:41.017Z,0
2017-10-12T04:58:41.011Z,4
2017-10-12T04:59:41.000Z,4
2017-10-12T05:00:41.720Z,0
2017-10-12T05:01:41.703Z,4
2017-10-12T05:02:41.311Z,4
2017-10-12T05:03:40.962Z,4
2017-10-12T05:04:41.636Z,4
2017-10-12T05:05:41.287Z,8
2017-10-12T05:06:40.953Z,12
2017-10-12T05:07:41.627Z,12
2017-10-12T05:08:40.920Z,12
2017-10-12T05:09:41.588Z,16
2017-10-12T05:10:41.269Z,20
2017-10-12T05:11:41.235Z,20
2017-10-12T05:12:41.902Z,28
2017-10-12T05:13:41.223Z,32
2017-10-12T05:14:41.203Z,36
2017-10-12T05:15:41.197Z,40
2017-10-12T05:16:40.861Z,44
2017-10-12T05:17:41.543Z,44
2017-10-12T05:18:40.824Z,40
2017-10-12T05:19:41.845Z,48
2017-10-12T05:20:40.810Z,72
2017-10-12T05:21:40.840Z,96
2017-10-12T05:22:41.126Z,128
2017-10-12T05:23:41.142Z,152
2017-10-12T05:24:41.111Z,156
2017-10-12T05:25:41.440Z,176
2017-10-12T05:26:41.091Z,200
2017-10-12T05:27:40.757Z,224
2017-10-12T05:28:40.731Z,244
2017-10-12T05:29:40.720Z,272
2017-10-12T05:30:41.058Z,292
2017-10-12T05:31:41.051Z,320
2017-10-12T05:32:40.690Z,348
2017-10-12T05:33:41.735Z,372
2017-10-12T05:34:41.365Z,396
2017-10-12T05:35:41.003Z,420
2017-10-12T05:36:41.345Z,448
2017-10-12T05:37:40.645Z,480
2017-10-12T05:38:40.707Z,520
2017-10-12T05:39:40.628Z,560
2017-10-12T05:40:41.645Z,608
2017-10-12T05:41:40.958Z,664
2017-10-12T05:42:40.946Z,724
2017-10-12T05:43:40.590Z,780
2017-10-12T05:44:40.580Z,840
2017-10-12T05:45:41.250Z,904
2017-10-12T05:46:40.903Z,968
2017-10-12T05:47:40.560Z,1048
2017-10-12T05:48:41.221Z,1132
2017-10-12T05:49:41.213Z,1208
2017-10-12T05:50:41.212Z,1256
2017-10-12T05:51:40.859Z,1316
2017-10-12T05:52:40.511Z,1392
2017-10-12T05:53:40.849Z,1464
2017-10-12T05:54:40.825Z,1484
2017-10-12T05:55:40.482Z,1468
2017-10-12T05:56:40.818Z,1396
2017-10-12T05:57:40.806Z,1304
2017-10-12T05:58:40.452Z,1256
2017-10-12T05:59:40.444Z,1224
2017-10-12T06:00:40.433Z,1220
2017-10-12T06:01:40.424Z,1256
2017-10-12T06:02:40.417Z,1272
2017-10-12T06:03:40.744Z,1264
2017-10-12T06:04:40.401Z,1184
2017-10-12T06:05:40.750Z,1108
2017-10-12T06:06:41.060Z,1044
2017-10-12T06:07:40.370Z,1032
2017-10-12T06:08:41.093Z,1044
2017-10-12T06:09:40.700Z,1044
2017-10-12T06:10:40.708Z,1004
2017-10-12T06:11:40.695Z,924
2017-10-12T06:12:41.018Z,816
2017-10-12T06:13:40.318Z,692
2017-10-12T06:14:40.651Z,596
2017-10-12T06:15:40.640Z,532
2017-10-12T06:16:40.971Z,496
2017-10-12T06:17:40.623Z,476
2017-10-12T06:18:40.615Z,476
2017-10-12T06:19:40.610Z,496
2017-10-12T06:20:40.253Z,520
2017-10-12T06:21:40.248Z,560
2017-10-12T06:22:40.239Z,604
2017-10-12T06:23:40.228Z,668
2017-10-12T06:24:40.936Z,728
2017-10-12T06:25:40.582Z,760
2017-10-12T06:26:40.552Z,796
2017-10-12T06:27:40.871Z,844
2017-10-12T06:28:40.877Z,900
2017-10-12T06:29:40.179Z,956
2017-10-12T06:30:40.511Z,1008
2017-10-12T06:31:40.499Z,972
2017-10-12T06:32:40.515Z,932
2017-10-12T06:33:40.157Z,924
2017-10-12T06:34:40.484Z,960
2017-10-12T06:35:40.134Z,1096
2017-10-12T06:36:40.466Z,1240
2017-10-12T06:37:40.109Z,1296
2017-10-12T06:38:40.790Z,1252
2017-10-12T06:39:40.095Z,1196
2017-10-12T06:40:40.083Z,1248
2017-10-12T06:41:40.073Z,1524
2017-10-12T06:42:41.099Z,1764
2017-10-12T06:43:40.420Z,1916
2017-10-12T06:44:40.392Z,2044
2017-10-12T06:45:40.039Z,2280
2017-10-12T06:46:40.719Z,2464
2017-10-12T06:47:40.360Z,2476
2017-10-12T06:48:40.355Z,2232
2017-10-12T06:49:40.699Z,1864
2017-10-12T06:50:40.706Z,1604
2017-10-12T06:51:40.338Z,1448
2017-10-12T06:52:40.317Z,1424
2017-10-12T06:53:39.968Z,1528
2017-10-12T06:54:40.983Z,1756
2017-10-12T06:55:40.297Z,1984
2017-10-12T06:56:39.951Z,2156
2017-10-12T06:57:39.960Z,2340
2017-10-12T06:58:40.270Z,2404
2017-10-12T06:59:40.600Z,2240
2017-10-12T07:00:39.912Z,2100
2017-10-12T07:01:40.585Z,2024
2017-10-12T07:02:40.279Z,2048
2017-10-12T07:03:40.227Z,2136
2017-10-12T07:04:40.221Z,2196
2017-10-12T07:05:40.550Z,2140
2017-10-12T07:06:40.881Z,2028
2017-10-12T07:07:39.873Z,1936
2017-10-12T07:08:40.182Z,1924
2017-10-12T07:09:40.523Z,1952
2017-10-12T07:10:40.511Z,2008
2017-10-12T07:11:39.819Z,2036
2017-10-12T07:12:40.519Z,2044
2017-10-12T07:13:40.173Z,2104
2017-10-12T07:14:40.138Z,2220
2017-10-12T07:15:40.139Z,2264
2017-10-12T07:16:40.121Z,2148
2017-10-12T07:17:40.117Z,1980
2017-10-12T07:18:40.468Z,1912
2017-10-12T07:19:40.784Z,1800
2017-10-12T07:20:40.093Z,1744
2017-10-12T07:21:40.085Z,1792
2017-10-12T07:22:39.730Z,1772
2017-10-12T07:23:39.724Z,1836
2017-10-12T07:24:40.394Z,1844
2017-10-12T07:25:40.392Z,1948
2017-10-12T07:26:40.395Z,1968
2017-10-12T07:27:40.056Z,1844
2017-10-12T07:28:40.032Z,1852
2017-10-12T07:29:39.679Z,1912
2017-10-12T07:30:39.667Z,2108
2017-10-12T07:31:40.000Z,2308
2017-10-12T07:32:40.001Z,2580
2017-10-12T07:33:40.001Z,3124
2017-10-12T07:34:39.973Z,3148
2017-10-12T07:35:39.638Z,3056
2017-10-12T07:36:40.331Z,2744
2017-10-12T07:37:40.315Z,2448
2017-10-12T07:38:40.277Z,2332
2017-10-12T07:39:40.284Z,2240
2017-10-12T07:40:39.611Z,2220
2017-10-12T07:41:40.277Z,2276
2017-10-12T07:42:39.576Z,2344
2017-10-12T07:43:39.901Z,2448
2017-10-12T07:44:40.234Z,2864
2017-10-12T07:45:39.547Z,3336
2017-10-12T07:46:39.537Z,3716
2017-10-12T07:47:40.208Z,4292
2017-10-12T07:48:40.257Z,4928
2017-10-12T07:49:39.864Z,6264
2017-10-12T07:50:40.184Z,7836
2017-10-12T07:51:39.498Z,7732
2017-10-12T07:52:39.835Z,7992
2017-10-12T07:53:39.842Z,8216
2017-10-12T07:54:40.187Z,5760
2017-10-12T07:55:40.146Z,6208
2017-10-12T07:56:40.141Z,6652
2017-10-12T07:57:40.153Z,8000
2017-10-12T07:58:40.121Z,9664
2017-10-12T07:59:39.777Z,8616
2017-10-12T08:00:39.817Z,8140
2017-10-12T08:01:40.440Z,8756
2017-10-12T08:02:39.764Z,7760
2017-10-12T08:03:39.749Z,7572
2017-10-12T08:04:39.757Z,6724
2017-10-12T08:05:40.083Z,5824
2017-10-12T08:06:39.387Z,5872
2017-10-12T08:07:40.066Z,6044
2017-10-12T08:08:40.077Z,5724
2017-10-12T08:09:39.705Z,5696
2017-10-12T08:10:39.708Z,5168
2017-10-12T08:11:39.714Z,4880
2017-10-12T08:12:39.697Z,6652
2017-10-12T08:13:40.021Z,6672
2017-10-12T08:14:40.031Z,5896
2017-10-12T08:15:39.325Z,6680
2017-10-12T08:16:39.324Z,8012
2017-10-12T08:17:40.003Z,8140
2017-10-12T08:18:40.350Z,8548
2017-10-12T08:19:39.642Z,7480
2017-10-12T08:20:39.640Z,6672
2017-10-12T08:21:39.666Z,5396
2017-10-12T08:22:39.283Z,7176
2017-10-12T08:23:39.981Z,7336
2017-10-12T08:24:39.607Z,5520
2017-10-12T08:25:39.597Z,4576
2017-10-12T08:26:39.934Z,3896
2017-10-12T08:27:39.929Z,4184
2017-10-12T08:28:39.581Z,3496
2017-10-12T08:29:39.582Z,3668
2017-10-12T08:30:39.916Z,3396
2017-10-12T08:31:39.576Z,4688
2017-10-12T08:32:39.550Z,2448
2017-10-12T08:33:39.238Z,1968
2017-10-12T08:34:39.203Z,2212
2017-10-12T08:35:39.199Z,2056
2017-10-12T08:36:39.189Z,1972
2017-10-12T08:37:39.522Z,2804
2017-10-12T08:38:39.532Z,2844
2017-10-12T08:39:39.521Z,3456
2017-10-12T08:40:39.861Z,3356
2017-10-12T08:41:39.157Z,2756
2017-10-12T08:42:39.150Z,2476
2017-10-12T08:43:39.820Z,3340
2017-10-12T08:44:39.483Z,3892
2017-10-12T08:45:39.499Z,4632
2017-10-12T08:46:39.483Z,5968
2017-10-12T08:47:39.115Z,6512
2017-10-12T08:48:39.447Z,7748
2017-10-12T08:49:39.788Z,6240
2017-10-12T08:50:39.790Z,3964
2017-10-12T08:51:39.432Z,3108
2017-10-12T08:52:39.428Z,4140
2017-10-12T08:53:39.418Z,4244
2017-10-12T08:54:39.089Z,4180
2017-10-12T08:55:39.062Z,4000
2017-10-12T08:56:39.733Z,4456
2017-10-12T08:57:39.048Z,5444
2017-10-12T08:58:39.734Z,4936
2017-10-12T08:59:39.744Z,5536
2017-10-12T09:00:39.051Z,5576
2017-10-12T09:01:39.710Z,6120
2017-10-12T09:02:39.375Z,7508
2017-10-12T09:03:39.691Z,8236
2017-10-12T09:04:39.005Z,8068
2017-10-12T09:05:39.365Z,7904
2017-10-12T09:06:39.707Z,5404
2017-10-12T09:07:38.991Z,4528
2017-10-12T09:08:39.658Z,3940
2017-10-12T09:09:38.991Z,4788
2017-10-12T09:10:39.308Z,6264
2017-10-12T09:11:39.982Z,10392
2017-10-12T09:12:39.305Z,9024
2017-10-12T09:13:39.289Z,7456
2017-10-12T09:14:39.701Z,7356
2017-10-12T09:15:39.614Z,6156
2017-10-12T09:16:39.421Z,5176
2017-10-12T09:17:39.751Z,6168
2017-10-12T09:18:39.269Z,5300
2017-10-12T09:19:39.285Z,5660
2017-10-12T09:20:39.617Z,5616
2017-10-12T09:21:39.254Z,4920
2017-10-12T09:22:39.595Z,4976
2017-10-12T09:23:39.230Z,4452
2017-10-12T09:24:39.220Z,3952
2017-10-12T09:25:38.871Z,3824
2017-10-12T09:26:39.546Z,5132
2017-10-12T09:27:38.865Z,4540
2017-10-12T09:28:38.905Z,5068
2017-10-12T09:29:39.190Z,5200
2017-10-12T09:30:38.843Z,3968
2017-10-12T09:31:39.179Z,3932
2017-10-12T09:32:38.829Z,5760
2017-10-12T09:33:39.519Z,4568
2017-10-12T09:34:39.511Z,3732
2017-10-12T09:35:38.811Z,3872
2017-10-12T09:36:38.806Z,4988
2017-10-12T09:37:39.139Z,7376
2017-10-12T09:38:39.484Z,7044
2017-10-12T09:39:38.787Z,7168
2017-10-12T09:40:39.815Z,8792
2017-10-12T09:41:39.119Z,9332
2017-10-12T09:42:39.115Z,8908
2017-10-12T09:43:39.099Z,6900
2017-10-12T09:44:38.760Z,5948
2017-10-12T09:45:39.114Z,8684
2017-10-12T09:46:39.088Z,7184
2017-10-12T09:47:38.750Z,5416
2017-10-12T09:48:39.074Z,4808
2017-10-12T09:49:39.415Z,5088
2017-10-12T09:50:39.408Z,3564
2017-10-12T09:51:38.726Z,3848
2017-10-12T09:52:39.388Z,5292
2017-10-12T09:53:39.048Z,6052
2017-10-12T09:54:38.703Z,5120
2017-10-12T09:55:39.110Z,5468
2017-10-12T09:56:39.388Z,6720
2017-10-12T09:57:39.388Z,5640
2017-10-12T09:58:38.677Z,6472
2017-10-12T09:59:39.355Z,5612
2017-10-12T10:00:39.010Z,6416
2017-10-12T10:01:39.001Z,6364
2017-10-12T10:02:38.993Z,7420
2017-10-12T10:03:39.336Z,9584
2017-10-12T10:04:39.321Z,8468
2017-10-12T10:05:38.989Z,6132
2017-10-12T10:06:39.371Z,5280
2017-10-12T10:07:38.960Z,6744
2017-10-12T10:08:38.969Z,5348
2017-10-12T10:09:39.308Z,3920
2017-10-12T10:10:38.609Z,4776
2017-10-12T10:11:38.602Z,6580
2017-10-12T10:12:39.633Z,6088
2017-10-12T10:13:38.599Z,4928
2017-10-12T10:14:38.930Z,5696
2017-10-12T10:15:39.278Z,7896
2017-10-12T10:16:39.255Z,7800
2017-10-12T10:17:39.250Z,7284
2017-10-12T10:18:38.910Z,8404
2017-10-12T10:19:38.554Z,10656
2017-10-12T10:20:39.588Z,9644
2017-10-12T10:21:38.561Z,9764
2017-10-12T10:22:38.557Z,9904
2017-10-12T10:23:38.534Z,10212
2017-10-12T10:24:38.532Z,10516
2017-10-12T10:25:38.863Z,10032
2017-10-12T10:26:38.868Z,7740
2017-10-12T10:27:39.194Z,6896
2017-10-12T10:28:38.858Z,6932
2017-10-12T10:29:38.498Z,7168
2017-10-12T10:30:38.861Z,7132
2017-10-12T10:31:39.210Z,8008
2017-10-12T10:32:38.834Z,8180
2017-10-12T10:33:38.824Z,8832
2017-10-12T10:34:38.821Z,9124
2017-10-12T10:35:38.501Z,8384
2017-10-12T10:36:38.801Z,8144
2017-10-12T10:37:39.136Z,5856
2017-10-12T10:38:38.811Z,6108
2017-10-12T10:39:39.128Z,6092
2017-10-12T10:40:39.122Z,5956
2017-10-12T10:41:38.440Z,4388
2017-10-12T10:42:38.440Z,5352
2017-10-12T10:43:39.111Z,7924
2017-10-12T10:44:38.437Z,8284
2017-10-12T10:45:38.761Z,7664
2017-10-12T10:46:38.413Z,7340
2017-10-12T10:47:38.754Z,9016
2017-10-12T10:48:38.417Z,7852
2017-10-12T10:49:38.752Z,6116
2017-10-12T10:50:39.103Z,5864
2017-10-12T10:51:39.099Z,6988
2017-10-12T10:52:38.380Z,6720
2017-10-12T10:53:38.718Z,3460
2017-10-12T10:54:38.417Z,4720
2017-10-12T10:55:38.705Z,5508
2017-10-12T10:56:38.714Z,7300
2017-10-12T10:57:38.374Z,6888
2017-10-12T10:58:38.353Z,7352
2017-10-12T10:59:38.690Z,7840
2017-10-12T11:00:38.686Z,7292
2017-10-12T11:01:38.677Z,7348
2017-10-12T11:02:38.335Z,8084
2017-10-12T11:03:38.327Z,8820
2017-10-12T11:04:38.675Z,9928
2017-10-12T11:05:38.320Z,10124
2017-10-12T11:06:39.007Z,10008
2017-10-12T11:07:38.988Z,10284
2017-10-12T11:08:38.646Z,10248
2017-10-12T11:09:38.689Z,10324
2017-10-12T11:10:38.291Z,9780
2017-10-12T11:11:38.628Z,8388
2017-10-12T11:12:38.654Z,7088
2017-10-12T11:13:39.339Z,5584
2017-10-12T11:14:38.617Z,5464
2017-10-12T11:15:38.273Z,5104
2017-10-12T11:16:38.279Z,5052
2017-10-12T11:17:38.940Z,5384
2017-10-12T11:18:38.606Z,5552
2017-10-12T11:19:38.611Z,4764
2017-10-12T11:20:38.267Z,5136
2017-10-12T11:21:38.589Z,4912
2017-10-12T11:22:38.950Z,4904
2017-10-12T11:23:38.592Z,5060
2017-10-12T11:24:38.589Z,4248
2017-10-12T11:25:38.572Z,4400
2017-10-12T11:26:38.940Z,5312
2017-10-12T11:27:38.898Z,5036
2017-10-12T11:28:38.225Z,4136
2017-10-12T11:29:38.556Z,4548
2017-10-12T11:30:38.534Z,5436
2017-10-12T11:31:38.217Z,5004
2017-10-12T11:32:38.528Z,6356
2017-10-12T11:33:38.539Z,4876
2017-10-12T11:34:38.178Z,4148
2017-10-12T11:35:38.512Z,3660
2017-10-12T11:36:38.506Z,3684
2017-10-12T11:37:38.166Z,3632
2017-10-12T11:38:38.837Z,3744
2017-10-12T11:39:38.160Z,4068
2017-10-12T11:40:38.150Z,4564
2017-10-12T11:41:38.835Z,4564
2017-10-12T11:42:38.157Z,4440
2017-10-12T11:43:38.153Z,4568
2017-10-12T11:44:38.474Z,5944
2017-10-12T11:45:39.051Z,6168
2017-10-12T11:46:38.143Z,5196
2017-10-12T11:47:38.450Z,4688
2017-10-12T11:48:38.804Z,4808
2017-10-12T11:49:38.099Z,4836
2017-10-12T11:50:38.146Z,4796
2017-10-12T11:51:38.105Z,5000
2017-10-12T11:52:39.107Z,5320
2017-10-12T11:53:38.418Z,5436
2017-10-12T11:54:38.415Z,5400
2017-10-12T11:55:38.067Z,5264
2017-10-12T11:56:38.062Z,5444
2017-10-12T11:57:38.394Z,5588
2017-10-12T11:58:38.757Z,5748
2017-10-12T11:59:38.048Z,6260
2017-10-12T12:00:38.386Z,6412
2017-10-12T12:01:38.376Z,6772
2017-10-12T12:02:38.371Z,6648
2017-10-12T12:03:38.025Z,6796
2017-10-12T12:04:38.359Z,7240
2017-10-12T12:05:39.052Z,7904
2017-10-12T12:06:38.015Z,8444
2017-10-12T12:07:38.006Z,8704
2017-10-12T12:08:38.016Z,8556
2017-10-12T12:09:38.346Z,8336
2017-10-12T12:10:38.001Z,9100
2017-10-12T12:11:37.987Z,9628
2017-10-12T12:12:38.669Z,9564
2017-10-12T12:13:38.656Z,9624
2017-10-12T12:14:38.531Z,9636
2017-10-12T12:15:38.308Z,9540
2017-10-12T12:16:37.962Z,9140
2017-10-12T12:17:38.641Z,8580
2017-10-12T12:18:38.626Z,8100
2017-10-12T12:19:38.295Z,7936
2017-10-12T12:20:38.286Z,7760
2017-10-12T12:21:38.326Z,7828
2017-10-12T12:22:38.272Z,7220
2017-10-12T12:23:38.270Z,6208
2017-10-12T12:24:38.635Z,5136
2017-10-12T12:25:37.919Z,5152
2017-10-12T12:26:38.255Z,6288
2017-10-12T12:27:38.253Z,6752
2017-10-12T12:28:38.243Z,6564
2017-10-12T12:29:38.240Z,6872
2017-10-12T12:30:37.898Z,7912
2017-10-12T12:31:38.240Z,8964
2017-10-12T12:32:38.227Z,9496
2017-10-12T12:33:38.557Z,9592
2017-10-12T12:34:38.226Z,9368
2017-10-12T12:35:38.554Z,9060
2017-10-12T12:36:38.563Z,8704
2017-10-12T12:37:37.864Z,8592
2017-10-12T12:38:38.558Z,8880
2017-10-12T12:39:37.851Z,9004
2017-10-12T12:40:38.192Z,8852
2017-10-12T12:41:37.860Z,8748
2017-10-12T12:42:37.842Z,8676
2017-10-12T12:43:38.175Z,8484
2017-10-12T12:44:38.189Z,8300
2017-10-12T12:45:38.500Z,8148
2017-10-12T12:46:37.818Z,7800
2017-10-12T12:47:38.153Z,7420
2017-10-12T12:48:38.518Z,7192
2017-10-12T12:49:37.804Z,7620
2017-10-12T12:50:38.820Z,7784
2017-10-12T12:51:38.826Z,7576
2017-10-12T12:52:37.788Z,7292
2017-10-12T12:53:38.130Z,6964
2017-10-12T12:54:38.476Z,6636
2017-10-12T12:55:37.778Z,6460
2017-10-12T12:56:38.125Z,6904
2017-10-12T12:57:38.453Z,6808
2017-10-12T12:58:38.133Z,6336
2017-10-12T12:59:38.100Z,6036
2017-10-12T13:00:38.455Z,6032
2017-10-12T13:01:37.769Z,5336
2017-10-12T13:02:38.092Z,4936
2017-10-12T13:03:37.738Z,4488
2017-10-12T13:04:38.094Z,4108
2017-10-12T13:05:38.077Z,4312
2017-10-12T13:06:37.724Z,4572
2017-10-12T13:07:38.077Z,4652
2017-10-12T13:08:38.395Z,4568
2017-10-12T13:09:38.053Z,4464
2017-10-12T13:10:38.750Z,4248
2017-10-12T13:11:37.701Z,4180
2017-10-12T13:12:38.048Z,4416
2017-10-12T13:13:37.697Z,4304
2017-10-12T13:14:37.706Z,4204
2017-10-12T13:15:37.681Z,4068
2017-10-12T13:16:38.039Z,3792
2017-10-12T13:17:38.712Z,3612
2017-10-12T13:18:38.006Z,3472
2017-10-12T13:19:38.342Z,3440
2017-10-12T13:20:37.992Z,4492
2017-10-12T13:21:37.652Z,6684
2017-10-12T13:22:37.643Z,6292
2017-10-12T13:23:37.643Z,4896
2017-10-12T13:24:37.637Z,4124
2017-10-12T13:25:38.322Z,4364
2017-10-12T13:26:38.308Z,4172
2017-10-12T13:27:42.664Z,5124
2017-10-12T13:28:37.953Z,6344
2017-10-12T13:29:38.305Z,5944
2017-10-12T13:30:37.602Z,5220
2017-10-12T13:31:37.957Z,4892
2017-10-12T13:32:37.934Z,4500
2017-10-12T13:33:38.287Z,5068
2017-10-12T13:34:37.924Z,5600
2017-10-12T13:35:37.577Z,5424
2017-10-12T13:36:37.917Z,4512
2017-10-12T13:37:38.266Z,4024
2017-10-12T13:38:37.917Z,3916
2017-10-12T13:39:38.237Z,4804
2017-10-12T13:40:37.913Z,5468
2017-10-12T13:41:38.247Z,5556
2017-10-12T13:42:37.884Z,4880
2017-10-12T13:43:37.892Z,4776
2017-10-12T13:44:37.883Z,5112
2017-10-12T13:45:37.877Z,4956
2017-10-12T13:46:37.863Z,4280
2017-10-12T13:47:37.860Z,3908
2017-10-12T13:48:37.850Z,3720
2017-10-12T13:49:37.841Z,3676
2017-10-12T13:50:38.200Z,3728
2017-10-12T13:51:37.840Z,3916